sensor_id;sensor_type;location;lat;lon;timestamp;pressure;altitude;pressure_sealevel;temperature;humidity
20111;BME280;10216;42.658;23.248;2023-07-30T00:02:18;93601.88;;;19.45;66.32
20111;BME280;10216;42.658;23.248;2023-07-30T00:04:45;93606.19;;;19.40;66.03
20111;BME280;10216;42.658;23.248;2023-07-30T00:07:11;93596.44;;;19.35;66.16
20111;BME280;10216;42.658;23.248;2023-07-30T00:09:37;93592.91;;;19.30;67.35
20111;BME280;10216;42.658;23.248;2023-07-30T00:12:03;93588.84;;;19.34;66.79
20111;BME280;10216;42.658;23.248;2023-07-30T00:14:28;93597.31;;;19.29;66.50
20111;BME280;10216;42.658;23.248;2023-07-30T00:16:54;93592.53;;;19.26;66.54
20111;BME280;10216;42.658;23.248;2023-07-30T00:19:19;93589.59;;;19.23;67.05
20111;BME280;10216;42.658;23.248;2023-07-30T00:21:44;93589.88;;;19.15;67.11
20111;BME280;10216;42.658;23.248;2023-07-30T00:24:12;93594.09;;;19.16;67.79
20111;BME280;10216;42.658;23.248;2023-07-30T00:26:38;93589.09;;;19.14;68.22
20111;BME280;10216;42.658;23.248;2023-07-30T00:29:03;93581.06;;;19.16;67.53
20111;BME280;10216;42.658;23.248;2023-07-30T00:31:29;93577.88;;;19.14;67.63
20111;BME280;10216;42.658;23.248;2023-07-30T00:33:54;93578.91;;;19.13;68.59
20111;BME280;10216;42.658;23.248;2023-07-30T00:36:20;93578.91;;;19.13;67.47
20111;BME280;10216;42.658;23.248;2023-07-30T00:38:45;93567.97;;;19.04;68.48
20111;BME280;10216;42.658;23.248;2023-07-30T00:41:10;93570.47;;;18.99;68.71
20111;BME280;10216;42.658;23.248;2023-07-30T00:43:36;93570.25;;;19.00;68.26
20111;BME280;10216;42.658;23.248;2023-07-30T00:46:01;93568.88;;;18.98;68.07
20111;BME280;10216;42.658;23.248;2023-07-30T00:48:28;93573.84;;;18.99;67.95
20111;BME280;10216;42.658;23.248;2023-07-30T00:50:53;93574.88;;;18.98;68.44
20111;BME280;10216;42.658;23.248;2023-07-30T00:53:21;93576.09;;;18.96;68.73
20111;BME280;10216;42.658;23.248;2023-07-30T00:55:47;93574.16;;;18.91;68.39
20111;BME280;10216;42.658;23.248;2023-07-30T00:58:12;93572.56;;;18.90;68.23
20111;BME280;10216;42.658;23.248;2023-07-30T01:00:38;93573.13;;;18.92;68.71
20111;BME280;10216;42.658;23.248;2023-07-30T01:03:04;93571.97;;;19.06;69.31
20111;BME280;10216;42.658;23.248;2023-07-30T01:05:29;93574.56;;;19.06;68.49
20111;BME280;10216;42.658;23.248;2023-07-30T01:07:54;93581.53;;;18.94;69.04
20111;BME280;10216;42.658;23.248;2023-07-30T01:10:21;93584.25;;;18.81;68.66
20111;BME280;10216;42.658;23.248;2023-07-30T01:12:47;93583.91;;;18.78;69.38
20111;BME280;10216;42.658;23.248;2023-07-30T01:15:13;93580.94;;;18.74;68.83
20111;BME280;10216;42.658;23.248;2023-07-30T01:17:39;93583.97;;;18.71;69.06
20111;BME280;10216;42.658;23.248;2023-07-30T01:20:05;93587.78;;;18.68;69.00
20111;BME280;10216;42.658;23.248;2023-07-30T01:22:30;93588.19;;;18.72;68.24
20111;BME280;10216;42.658;23.248;2023-07-30T01:24:56;93594.00;;;18.67;68.20
20111;BME280;10216;42.658;23.248;2023-07-30T01:27:34;93582.06;;;18.60;69.16
20111;BME280;10216;42.658;23.248;2023-07-30T01:30:17;93586.72;;;18.58;68.40
20111;BME280;10216;42.658;23.248;2023-07-30T01:32:44;93583.38;;;18.51;68.48
20111;BME280;10216;42.658;23.248;2023-07-30T01:35:13;93591.16;;;18.51;68.93
20111;BME280;10216;42.658;23.248;2023-07-30T01:37:40;93584.94;;;18.52;67.80
20111;BME280;10216;42.658;23.248;2023-07-30T01:40:07;93590.13;;;18.52;68.49
20111;BME280;10216;42.658;23.248;2023-07-30T01:42:34;93591.38;;;18.49;68.46
20111;BME280;10216;42.658;23.248;2023-07-30T01:44:59;93589.41;;;18.45;68.63
20111;BME280;10216;42.658;23.248;2023-07-30T01:47:24;93585.22;;;18.44;68.65
20111;BME280;10216;42.658;23.248;2023-07-30T01:49:50;93591.00;;;18.46;68.64
20111;BME280;10216;42.658;23.248;2023-07-30T01:52:15;93595.38;;;18.45;68.76
20111;BME280;10216;42.658;23.248;2023-07-30T01:54:40;93591.25;;;18.38;68.82
20111;BME280;10216;42.658;23.248;2023-07-30T01:57:07;93603.47;;;18.37;69.18
20111;BME280;10216;42.658;23.248;2023-07-30T01:59:32;93593.50;;;18.34;69.61
20111;BME280;10216;42.658;23.248;2023-07-30T02:01:58;93590.91;;;18.34;69.51
20111;BME280;10216;42.658;23.248;2023-07-30T02:04:23;93599.91;;;18.31;70.27
20111;BME280;10216;42.658;23.248;2023-07-30T02:06:48;93598.78;;;18.27;70.29
20111;BME280;10216;42.658;23.248;2023-07-30T02:09:14;93593.44;;;18.22;70.27
20111;BME280;10216;42.658;23.248;2023-07-30T02:11:39;93588.00;;;18.24;70.21
20111;BME280;10216;42.658;23.248;2023-07-30T02:14:05;93594.19;;;18.23;70.32
20111;BME280;10216;42.658;23.248;2023-07-30T02:16:30;93595.44;;;18.20;70.82
20111;BME280;10216;42.658;23.248;2023-07-30T02:18:55;93594.03;;;18.18;71.01
20111;BME280;10216;42.658;23.248;2023-07-30T02:21:21;93601.31;;;18.09;71.59
20111;BME280;10216;42.658;23.248;2023-07-30T02:23:46;93595.69;;;18.12;71.30
20111;BME280;10216;42.658;23.248;2023-07-30T02:26:11;93593.94;;;18.06;71.41
20111;BME280;10216;42.658;23.248;2023-07-30T02:28:37;93599.34;;;18.05;71.99
20111;BME280;10216;42.658;23.248;2023-07-30T02:31:02;93604.16;;;18.01;72.15
20111;BME280;10216;42.658;23.248;2023-07-30T02:33:27;93592.25;;;17.93;72.02
20111;BME280;10216;42.658;23.248;2023-07-30T02:35:53;93605.19;;;18.00;71.50
20111;BME280;10216;42.658;23.248;2023-07-30T02:38:18;93607.19;;;17.98;72.07
20111;BME280;10216;42.658;23.248;2023-07-30T02:40:44;93614.34;;;18.03;71.51
20111;BME280;10216;42.658;23.248;2023-07-30T02:43:09;93601.06;;;17.92;71.68
20111;BME280;10216;42.658;23.248;2023-07-30T02:45:34;93605.44;;;17.92;71.90
20111;BME280;10216;42.658;23.248;2023-07-30T02:48:00;93605.50;;;17.85;72.25
20111;BME280;10216;42.658;23.248;2023-07-30T02:50:25;93607.13;;;17.80;72.31
20111;BME280;10216;42.658;23.248;2023-07-30T02:52:50;93609.31;;;17.83;72.44
20111;BME280;10216;42.658;23.248;2023-07-30T02:55:16;93605.91;;;17.82;72.31
20111;BME280;10216;42.658;23.248;2023-07-30T02:57:41;93607.13;;;17.80;72.03
20111;BME280;10216;42.658;23.248;2023-07-30T03:00:07;93603.19;;;17.71;72.89
20111;BME280;10216;42.658;23.248;2023-07-30T03:02:34;93604.41;;;17.68;72.34
20111;BME280;10216;42.658;23.248;2023-07-30T03:04:59;93617.94;;;17.77;72.08
20111;BME280;10216;42.658;23.248;2023-07-30T03:07:25;93615.53;;;17.75;72.05
20111;BME280;10216;42.658;23.248;2023-07-30T03:09:50;93615.34;;;17.77;72.42
20111;BME280;10216;42.658;23.248;2023-07-30T03:12:15;93614.09;;;17.79;72.41
20111;BME280;10216;42.658;23.248;2023-07-30T03:14:41;93621.13;;;17.79;71.96
20111;BME280;10216;42.658;23.248;2023-07-30T03:17:06;93605.75;;;17.77;72.76
20111;BME280;10216;42.658;23.248;2023-07-30T03:19:32;93604.50;;;17.80;72.94
20111;BME280;10216;42.658;23.248;2023-07-30T03:21:57;93607.72;;;17.82;73.04
20111;BME280;10216;42.658;23.248;2023-07-30T03:24:23;93607.91;;;17.80;73.55
20111;BME280;10216;42.658;23.248;2023-07-30T03:26:48;93603.72;;;17.79;72.82
20111;BME280;10216;42.658;23.248;2023-07-30T03:29:14;93610.91;;;17.84;72.85
20111;BME280;10216;42.658;23.248;2023-07-30T03:31:40;93606.06;;;17.87;72.55
20111;BME280;10216;42.658;23.248;2023-07-30T03:34:05;93600.91;;;17.81;73.29
20111;BME280;10216;42.658;23.248;2023-07-30T03:36:31;93605.06;;;17.88;72.79
20111;BME280;10216;42.658;23.248;2023-07-30T03:38:56;93612.84;;;17.88;73.67
20111;BME280;10216;42.658;23.248;2023-07-30T03:41:22;93614.84;;;17.93;73.78
20111;BME280;10216;42.658;23.248;2023-07-30T03:43:47;93615.78;;;17.99;73.23
20111;BME280;10216;42.658;23.248;2023-07-30T03:46:13;93617.13;;;18.08;73.40
20111;BME280;10216;42.658;23.248;2023-07-30T03:48:38;93613.03;;;18.18;72.38
20111;BME280;10216;42.658;23.248;2023-07-30T03:51:03;93614.75;;;18.06;72.57
20111;BME280;10216;42.658;23.248;2023-07-30T03:53:29;93611.28;;;18.12;72.32
20111;BME280;10216;42.658;23.248;2023-07-30T03:55:54;93619.97;;;18.24;72.34
20111;BME280;10216;42.658;23.248;2023-07-30T03:58:20;93617.97;;;18.26;73.43
20111;BME280;10216;42.658;23.248;2023-07-30T04:00:45;93627.34;;;18.27;72.96
20111;BME280;10216;42.658;23.248;2023-07-30T04:03:10;93628.94;;;18.28;73.10
20111;BME280;10216;42.658;23.248;2023-07-30T04:05:36;93621.94;;;18.29;73.04
20111;BME280;10216;42.658;23.248;2023-07-30T04:08:01;93620.34;;;18.28;74.08
20111;BME280;10216;42.658;23.248;2023-07-30T04:10:27;93622.25;;;18.39;73.57
20111;BME280;10216;42.658;23.248;2023-07-30T04:12:52;93626.81;;;18.44;74.12
20111;BME280;10216;42.658;23.248;2023-07-30T04:15:17;93635.91;;;18.53;73.52
20111;BME280;10216;42.658;23.248;2023-07-30T04:17:43;93628.31;;;18.58;72.89
20111;BME280;10216;42.658;23.248;2023-07-30T04:20:09;93632.31;;;18.54;73.41
20111;BME280;10216;42.658;23.248;2023-07-30T04:22:37;93636.06;;;18.64;72.33
20111;BME280;10216;42.658;23.248;2023-07-30T04:25:03;93635.81;;;18.66;72.14
20111;BME280;10216;42.658;23.248;2023-07-30T04:27:29;93628.91;;;18.78;72.64
20111;BME280;10216;42.658;23.248;2023-07-30T04:29:54;93632.25;;;18.85;72.79
20111;BME280;10216;42.658;23.248;2023-07-30T04:32:19;93638.25;;;18.86;72.77
20111;BME280;10216;42.658;23.248;2023-07-30T04:34:45;93637.44;;;18.85;72.38
20111;BME280;10216;42.658;23.248;2023-07-30T04:37:10;93637.25;;;18.87;71.92
20111;BME280;10216;42.658;23.248;2023-07-30T04:39:36;93636.28;;;18.81;71.95
20111;BME280;10216;42.658;23.248;2023-07-30T04:42:02;93641.84;;;18.85;72.31
20111;BME280;10216;42.658;23.248;2023-07-30T04:44:27;93642.72;;;18.97;72.00
20111;BME280;10216;42.658;23.248;2023-07-30T04:46:53;93640.78;;;19.10;71.88
20111;BME280;10216;42.658;23.248;2023-07-30T04:49:18;93640.78;;;19.10;71.32
20111;BME280;10216;42.658;23.248;2023-07-30T04:51:44;93639.56;;;19.13;70.70
20111;BME280;10216;42.658;23.248;2023-07-30T04:54:09;93637.59;;;19.27;70.12
20111;BME280;10216;42.658;23.248;2023-07-30T04:56:34;93644.09;;;19.36;68.68
20111;BME280;10216;42.658;23.248;2023-07-30T04:59:01;93633.59;;;19.42;68.83
20111;BME280;10216;42.658;23.248;2023-07-30T05:01:26;93630.34;;;19.47;68.50
20111;BME280;10216;42.658;23.248;2023-07-30T05:03:52;93640.59;;;19.60;68.35
20111;BME280;10216;42.658;23.248;2023-07-30T05:06:18;93634.53;;;19.66;68.40
20111;BME280;10216;42.658;23.248;2023-07-30T05:08:43;93640.88;;;19.70;68.08
20111;BME280;10216;42.658;23.248;2023-07-30T05:11:08;93631.94;;;19.78;68.02
20111;BME280;10216;42.658;23.248;2023-07-30T05:13:34;93627.00;;;19.88;67.83
20111;BME280;10216;42.658;23.248;2023-07-30T05:15:59;93630.97;;;19.91;67.83
20111;BME280;10216;42.658;23.248;2023-07-30T05:18:25;93637.66;;;19.98;67.39
20111;BME280;10216;42.658;23.248;2023-07-30T05:20:50;93635.53;;;20.07;67.06
20111;BME280;10216;42.658;23.248;2023-07-30T05:23:15;93639.06;;;20.12;66.85
20111;BME280;10216;42.658;23.248;2023-07-30T05:25:41;93633.31;;;20.22;67.41
20111;BME280;10216;42.658;23.248;2023-07-30T05:28:06;93635.16;;;20.33;67.74
20111;BME280;10216;42.658;23.248;2023-07-30T05:30:32;93636.63;;;20.41;67.35
20111;BME280;10216;42.658;23.248;2023-07-30T05:32:57;93639.81;;;20.43;67.56
20111;BME280;10216;42.658;23.248;2023-07-30T05:35:22;93639.81;;;20.43;68.19
20111;BME280;10216;42.658;23.248;2023-07-30T05:37:48;93647.53;;;20.49;68.24
20111;BME280;10216;42.658;23.248;2023-07-30T05:40:13;93641.06;;;20.63;67.96
20111;BME280;10216;42.658;23.248;2023-07-30T05:42:39;93641.50;;;20.60;67.11
20111;BME280;10216;42.658;23.248;2023-07-30T05:45:05;93639.72;;;20.73;66.90
20111;BME280;10216;42.658;23.248;2023-07-30T05:47:30;93646.28;;;20.87;66.54
20111;BME280;10216;42.658;23.248;2023-07-30T05:49:56;93644.47;;;20.99;66.14
20111;BME280;10216;42.658;23.248;2023-07-30T05:52:21;93647.28;;;21.09;65.84
20111;BME280;10216;42.658;23.248;2023-07-30T05:54:46;93650.78;;;21.15;65.68
20111;BME280;10216;42.658;23.248;2023-07-30T05:57:12;93656.63;;;21.17;65.55
20111;BME280;10216;42.658;23.248;2023-07-30T05:59:37;93654.53;;;21.30;65.29
20111;BME280;10216;42.658;23.248;2023-07-30T06:02:03;93660.75;;;21.41;64.98
20111;BME280;10216;42.658;23.248;2023-07-30T06:04:29;93650.31;;;21.41;65.16
20111;BME280;10216;42.658;23.248;2023-07-30T06:06:54;93652.06;;;21.64;64.32
20111;BME280;10216;42.658;23.248;2023-07-30T06:09:20;93660.97;;;21.79;64.17
20111;BME280;10216;42.658;23.248;2023-07-30T06:11:45;93658.13;;;21.81;63.76
20111;BME280;10216;42.658;23.248;2023-07-30T06:14:10;93661.38;;;22.00;63.53
20111;BME280;10216;42.658;23.248;2023-07-30T06:16:36;93652.53;;;22.17;62.89
20111;BME280;10216;42.658;23.248;2023-07-30T06:19:01;93659.19;;;22.25;62.91
20111;BME280;10216;42.658;23.248;2023-07-30T06:21:26;93660.03;;;22.14;61.81
20111;BME280;10216;42.658;23.248;2023-07-30T06:23:52;93662.84;;;22.41;61.69
20111;BME280;10216;42.658;23.248;2023-07-30T06:26:17;93657.31;;;22.54;61.46
20111;BME280;10216;42.658;23.248;2023-07-30T06:28:42;93662.69;;;22.64;61.35
20111;BME280;10216;42.658;23.248;2023-07-30T06:31:08;93653.25;;;22.80;60.20
20111;BME280;10216;42.658;23.248;2023-07-30T06:33:33;93650.81;;;22.90;60.62
20111;BME280;10216;42.658;23.248;2023-07-30T06:35:59;93650.94;;;23.00;60.28
20111;BME280;10216;42.658;23.248;2023-07-30T06:38:24;93650.13;;;23.00;59.14
20111;BME280;10216;42.658;23.248;2023-07-30T06:40:49;93649.38;;;23.21;59.63
20111;BME280;10216;42.658;23.248;2023-07-30T06:43:15;93638.69;;;23.27;58.47
20111;BME280;10216;42.658;23.248;2023-07-30T06:45:40;93646.88;;;23.48;58.99
20111;BME280;10216;42.658;23.248;2023-07-30T06:48:05;93637.28;;;23.58;58.07
20111;BME280;10216;42.658;23.248;2023-07-30T06:50:31;93634.59;;;23.75;56.70
20111;BME280;10216;42.658;23.248;2023-07-30T06:52:56;93631.38;;;23.95;56.47
20111;BME280;10216;42.658;23.248;2023-07-30T06:55:22;93628.34;;;24.08;56.54
20111;BME280;10216;42.658;23.248;2023-07-30T06:57:47;93627.09;;;24.16;54.77
20111;BME280;10216;42.658;23.248;2023-07-30T07:00:13;93630.19;;;24.34;54.81
20111;BME280;10216;42.658;23.248;2023-07-30T07:02:39;93632.63;;;24.46;54.97
20111;BME280;10216;42.658;23.248;2023-07-30T07:05:05;93624.34;;;24.64;54.42
20111;BME280;10216;42.658;23.248;2023-07-30T07:07:31;93622.03;;;24.73;54.07
20111;BME280;10216;42.658;23.248;2023-07-30T07:09:56;93626.81;;;24.76;54.04
20111;BME280;10216;42.658;23.248;2023-07-30T07:12:21;93626.97;;;24.96;52.55
20111;BME280;10216;42.658;23.248;2023-07-30T07:14:47;93621.31;;;25.19;52.53
20111;BME280;10216;42.658;23.248;2023-07-30T07:17:13;93618.97;;;25.28;51.90
20111;BME280;10216;42.658;23.248;2023-07-30T07:19:38;93611.16;;;25.48;51.04
20111;BME280;10216;42.658;23.248;2023-07-30T07:22:04;93612.03;;;25.64;51.34
20111;BME280;10216;42.658;23.248;2023-07-30T07:24:30;93616.03;;;25.82;51.13
20111;BME280;10216;42.658;23.248;2023-07-30T07:26:56;93610.53;;;26.03;50.46
20111;BME280;10216;42.658;23.248;2023-07-30T07:29:21;93614.25;;;26.13;49.90
20111;BME280;10216;42.658;23.248;2023-07-30T07:31:47;93606.88;;;26.15;50.77
20111;BME280;10216;42.658;23.248;2023-07-30T07:34:12;93602.91;;;26.02;48.74
20111;BME280;10216;42.658;23.248;2023-07-30T07:36:37;93616.38;;;26.41;49.05
20111;BME280;10216;42.658;23.248;2023-07-30T07:39:03;93611.13;;;26.56;48.96
20111;BME280;10216;42.658;23.248;2023-07-30T07:41:28;93605.31;;;26.64;46.95
20111;BME280;10216;42.658;23.248;2023-07-30T07:43:54;93598.97;;;26.70;47.42
20111;BME280;10216;42.658;23.248;2023-07-30T07:46:19;93612.66;;;26.98;47.78
20111;BME280;10216;42.658;23.248;2023-07-30T07:48:45;93600.50;;;27.12;46.32
20111;BME280;10216;42.658;23.248;2023-07-30T07:51:11;93602.81;;;27.24;46.81
20111;BME280;10216;42.658;23.248;2023-07-30T07:53:37;93602.50;;;27.40;46.68
20111;BME280;10216;42.658;23.248;2023-07-30T07:56:04;93595.88;;;27.53;45.15
20111;BME280;10216;42.658;23.248;2023-07-30T07:58:31;93597.03;;;27.81;45.68
20111;BME280;10216;42.658;23.248;2023-07-30T08:00:57;93604.28;;;28.09;45.52
20111;BME280;10216;42.658;23.248;2023-07-30T08:03:23;93602.72;;;28.08;44.50
20111;BME280;10216;42.658;23.248;2023-07-30T08:05:49;93601.84;;;28.23;44.73
20111;BME280;10216;42.658;23.248;2023-07-30T08:08:14;93597.41;;;28.47;43.46
20111;BME280;10216;42.658;23.248;2023-07-30T08:10:40;93593.25;;;28.70;43.19
20111;BME280;10216;42.658;23.248;2023-07-30T08:13:10;93591.66;;;29.03;42.71
20111;BME280;10216;42.658;23.248;2023-07-30T08:15:36;93590.84;;;29.26;43.29
20111;BME280;10216;42.658;23.248;2023-07-30T08:18:01;93585.31;;;28.99;41.88
20111;BME280;10216;42.658;23.248;2023-07-30T08:20:27;93591.03;;;29.35;42.03
20111;BME280;10216;42.658;23.248;2023-07-30T08:22:52;93593.59;;;29.40;40.71
20111;BME280;10216;42.658;23.248;2023-07-30T08:25:17;93590.47;;;29.38;40.31
20111;BME280;10216;42.658;23.248;2023-07-30T08:27:43;93592.63;;;29.97;40.42
20111;BME280;10216;42.658;23.248;2023-07-30T08:30:09;93587.44;;;30.43;39.51
20111;BME280;10216;42.658;23.248;2023-07-30T08:32:34;93590.50;;;30.18;40.18
20111;BME280;10216;42.658;23.248;2023-07-30T08:34:59;93582.47;;;30.55;38.61
20111;BME280;10216;42.658;23.248;2023-07-30T08:37:25;93584.28;;;31.06;39.86
20111;BME280;10216;42.658;23.248;2023-07-30T08:39:51;93587.03;;;31.28;38.43
20111;BME280;10216;42.658;23.248;2023-07-30T08:42:17;93582.13;;;31.63;37.50
20111;BME280;10216;42.658;23.248;2023-07-30T08:44:42;93575.81;;;31.59;37.80
20111;BME280;10216;42.658;23.248;2023-07-30T08:47:08;93572.13;;;32.32;36.51
20111;BME280;10216;42.658;23.248;2023-07-30T08:49:33;93574.84;;;31.55;36.13
20111;BME280;10216;42.658;23.248;2023-07-30T08:52:00;93576.06;;;32.34;36.24
20111;BME280;10216;42.658;23.248;2023-07-30T08:54:29;93579.00;;;32.33;37.37
20111;BME280;10216;42.658;23.248;2023-07-30T08:56:55;93573.22;;;33.15;35.90
20111;BME280;10216;42.658;23.248;2023-07-30T08:59:21;93571.44;;;33.02;34.68
20111;BME280;10216;42.658;23.248;2023-07-30T09:01:51;93563.19;;;33.51;35.08
20111;BME280;10216;42.658;23.248;2023-07-30T09:04:18;93565.19;;;33.37;33.84
20111;BME280;10216;42.658;23.248;2023-07-30T09:06:43;93568.75;;;33.81;33.09
20111;BME280;10216;42.658;23.248;2023-07-30T09:09:13;93565.47;;;34.18;32.85
20111;BME280;10216;42.658;23.248;2023-07-30T09:11:38;93553.41;;;34.03;32.67
20111;BME280;10216;42.658;23.248;2023-07-30T09:14:05;93560.28;;;34.65;32.49
20111;BME280;10216;42.658;23.248;2023-07-30T09:16:31;93566.06;;;35.31;32.02
20111;BME280;10216;42.658;23.248;2023-07-30T09:18:56;93562.47;;;35.56;31.53
20111;BME280;10216;42.658;23.248;2023-07-30T09:21:32;93566.91;;;35.22;29.46
20111;BME280;10216;42.658;23.248;2023-07-30T09:24:01;93563.22;;;35.36;29.79
20111;BME280;10216;42.658;23.248;2023-07-30T09:26:39;93566.47;;;36.00;29.25
20111;BME280;10216;42.658;23.248;2023-07-30T09:29:08;93559.75;;;36.35;29.36
20111;BME280;10216;42.658;23.248;2023-07-30T09:31:46;93554.66;;;35.21;29.71
20111;BME280;10216;42.658;23.248;2023-07-30T09:34:19;93554.78;;;36.05;31.10
20111;BME280;10216;42.658;23.248;2023-07-30T09:36:45;93548.03;;;36.28;28.47
20111;BME280;10216;42.658;23.248;2023-07-30T09:39:20;93539.84;;;36.78;28.42
20111;BME280;10216;42.658;23.248;2023-07-30T09:41:46;93540.25;;;37.49;28.70
20111;BME280;10216;42.658;23.248;2023-07-30T09:44:12;93546.16;;;37.79;28.22
20111;BME280;10216;42.658;23.248;2023-07-30T09:46:46;93538.25;;;37.34;27.62
20111;BME280;10216;42.658;23.248;2023-07-30T09:49:12;93530.47;;;35.97;28.27
20111;BME280;10216;42.658;23.248;2023-07-30T09:51:38;93529.28;;;37.06;28.98
20111;BME280;10216;42.658;23.248;2023-07-30T09:54:06;93535.91;;;38.21;27.81
20111;BME280;10216;42.658;23.248;2023-07-30T09:56:32;93539.91;;;38.27;27.12
20111;BME280;10216;42.658;23.248;2023-07-30T09:58:57;93543.03;;;38.57;26.92
20111;BME280;10216;42.658;23.248;2023-07-30T10:01:24;93543.22;;;39.55;26.06
20111;BME280;10216;42.658;23.248;2023-07-30T10:03:50;93535.19;;;39.74;26.01
20111;BME280;10216;42.658;23.248;2023-07-30T10:06:17;93531.56;;;40.02;26.28
20111;BME280;10216;42.658;23.248;2023-07-30T10:08:43;93519.97;;;39.98;25.49
20111;BME280;10216;42.658;23.248;2023-07-30T10:11:11;93520.91;;;40.05;26.08
20111;BME280;10216;42.658;23.248;2023-07-30T10:13:39;93520.94;;;40.09;25.41
20111;BME280;10216;42.658;23.248;2023-07-30T10:16:10;93515.00;;;39.80;26.12
20111;BME280;10216;42.658;23.248;2023-07-30T10:18:40;93504.09;;;40.50;25.60
20111;BME280;10216;42.658;23.248;2023-07-30T10:21:10;93504.69;;;40.82;25.27
20111;BME280;10216;42.658;23.248;2023-07-30T10:23:46;93499.09;;;40.30;25.76
20111;BME280;10216;42.658;23.248;2023-07-30T10:26:15;93496.31;;;40.07;24.59
20111;BME280;10216;42.658;23.248;2023-07-30T10:28:40;93496.88;;;40.35;24.94
20111;BME280;10216;42.658;23.248;2023-07-30T10:31:09;93492.00;;;40.64;25.48
20111;BME280;10216;42.658;23.248;2023-07-30T10:33:52;93491.06;;;41.17;24.44
20111;BME280;10216;42.658;23.248;2023-07-30T10:38:56;93488.69;;;41.65;24.59
20111;BME280;10216;42.658;23.248;2023-07-30T10:41:21;93485.06;;;41.05;23.87
20111;BME280;10216;42.658;23.248;2023-07-30T10:43:49;93487.31;;;41.03;24.44
20111;BME280;10216;42.658;23.248;2023-07-30T10:46:17;93475.78;;;40.37;24.26
20111;BME280;10216;42.658;23.248;2023-07-30T10:48:45;93463.31;;;39.05;25.62
20111;BME280;10216;42.658;23.248;2023-07-30T10:51:15;93463.72;;;38.91;25.51
20111;BME280;10216;42.658;23.248;2023-07-30T10:53:45;93456.06;;;39.75;26.16
20111;BME280;10216;42.658;23.248;2023-07-30T10:56:12;93453.19;;;40.03;24.84
20111;BME280;10216;42.658;23.248;2023-07-30T10:58:38;93453.66;;;39.20;24.90
20111;BME280;10216;42.658;23.248;2023-07-30T11:01:05;93442.91;;;40.28;25.60
20111;BME280;10216;42.658;23.248;2023-07-30T11:03:31;93449.28;;;41.30;23.53
20111;BME280;10216;42.658;23.248;2023-07-30T11:05:57;93447.00;;;41.32;24.46
20111;BME280;10216;42.658;23.248;2023-07-30T11:08:37;93432.44;;;42.30;24.13
20111;BME280;10216;42.658;23.248;2023-07-30T11:11:04;93446.56;;;43.45;23.58
20111;BME280;10216;42.658;23.248;2023-07-30T11:13:35;93441.03;;;43.89;22.68
20111;BME280;10216;42.658;23.248;2023-07-30T11:16:00;93441.91;;;43.39;23.13
20111;BME280;10216;42.658;23.248;2023-07-30T11:18:31;93429.50;;;42.79;23.84
20111;BME280;10216;42.658;23.248;2023-07-30T11:21:08;93424.31;;;42.67;24.21
20111;BME280;10216;42.658;23.248;2023-07-30T11:23:35;93427.13;;;43.91;23.83
20111;BME280;10216;42.658;23.248;2023-07-30T11:26:02;93425.94;;;43.19;22.95
20111;BME280;10216;42.658;23.248;2023-07-30T11:28:33;93422.41;;;43.74;23.89
20111;BME280;10216;42.658;23.248;2023-07-30T11:30:59;93427.00;;;45.27;21.59
20111;BME280;10216;42.658;23.248;2023-07-30T11:33:27;93424.81;;;46.16;21.50
20111;BME280;10216;42.658;23.248;2023-07-30T11:35:56;93416.91;;;45.31;23.14
20111;BME280;10216;42.658;23.248;2023-07-30T11:38:26;93404.13;;;44.96;23.18
20111;BME280;10216;42.658;23.248;2023-07-30T11:40:54;93403.72;;;45.51;20.89
20111;BME280;10216;42.658;23.248;2023-07-30T11:43:21;93402.13;;;44.29;23.13
20111;BME280;10216;42.658;23.248;2023-07-30T11:45:47;93402.47;;;44.24;23.48
20111;BME280;10216;42.658;23.248;2023-07-30T11:48:13;93395.72;;;43.07;23.30
20111;BME280;10216;42.658;23.248;2023-07-30T11:53:10;93381.59;;;42.76;23.44
20111;BME280;10216;42.658;23.248;2023-07-30T11:55:40;93380.34;;;43.18;23.85
20111;BME280;10216;42.658;23.248;2023-07-30T11:58:06;93384.75;;;44.62;22.16
20111;BME280;10216;42.658;23.248;2023-07-30T12:00:32;93388.56;;;45.57;21.62
20111;BME280;10216;42.658;23.248;2023-07-30T12:03:06;93378.44;;;45.68;20.58
20111;BME280;10216;42.658;23.248;2023-07-30T12:05:36;93370.94;;;43.67;22.03
20111;BME280;10216;42.658;23.248;2023-07-30T12:08:03;93363.03;;;42.75;22.88
20111;BME280;10216;42.658;23.248;2023-07-30T12:10:49;93360.31;;;44.16;22.66
20111;BME280;10216;42.658;23.248;2023-07-30T12:13:18;93366.75;;;45.85;21.98
20111;BME280;10216;42.658;23.248;2023-07-30T12:15:54;93369.97;;;46.91;21.04
20111;BME280;10216;42.658;23.248;2023-07-30T12:18:20;93367.25;;;46.39;20.88
20111;BME280;10216;42.658;23.248;2023-07-30T12:20:49;93344.50;;;44.93;20.98
20111;BME280;10216;42.658;23.248;2023-07-30T12:23:16;93352.75;;;43.60;22.42
20111;BME280;10216;42.658;23.248;2023-07-30T12:25:41;93338.22;;;42.66;23.31
20111;BME280;10216;42.658;23.248;2023-07-30T12:28:06;93329.25;;;41.44;23.29
20111;BME280;10216;42.658;23.248;2023-07-30T12:30:32;93334.19;;;40.13;23.96
20111;BME280;10216;42.658;23.248;2023-07-30T12:32:58;93323.69;;;39.28;26.47
20111;BME280;10216;42.658;23.248;2023-07-30T12:35:23;93328.66;;;40.48;24.40
20111;BME280;10216;42.658;23.248;2023-07-30T12:37:49;93328.19;;;40.20;24.48
20111;BME280;10216;42.658;23.248;2023-07-30T12:40:15;93318.25;;;40.24;24.52
20111;BME280;10216;42.658;23.248;2023-07-30T12:42:41;93318.94;;;39.21;25.97
20111;BME280;10216;42.658;23.248;2023-07-30T12:45:07;93302.84;;;38.86;25.58
20111;BME280;10216;42.658;23.248;2023-07-30T12:47:32;93307.22;;;38.12;26.46
20111;BME280;10216;42.658;23.248;2023-07-30T12:50:00;93303.34;;;37.66;26.48
20111;BME280;10216;42.658;23.248;2023-07-30T12:52:26;93294.75;;;37.33;27.67